Aviation Digital Data Service (ADDS)

Output produced by METARs form (1336 UTC 24 August 2019)
found at http://www.aviationweather.gov/metar/data/
 
METAR text: EDDM 241320Z 04003KT 350V110 9999 FEW040 26/17 Q1020 NOSIG
Conditions at: EDDM (MUNICH-FLUGHAFEN, DE) observed 1320 UTC 24 August 2019
Temperature: 26.0°C (79°F)
Dewpoint: 17.0°C (63°F) [RH = 58%]
Pressure (altimeter): 30.12 inches Hg (1020.0 mb)
Winds: from the NE (40 degrees) at 3 MPH (3 knots; 1.5 m/s)
Visibility: 6 or more miles (10+ km)
Ceiling: at least 12,000 feet AGL
Clouds: few clouds at 4000 feet AGL
Weather: no significant weather observed at this time

METAR text: EDDM 241250Z 05003KT 320V130 9999 FEW036 26/18 Q1020 NOSIG
Conditions at: EDDM (MUNICH-FLUGHAFEN, DE) observed 1250 UTC 24 August 2019
Temperature: 26.0°C (79°F)
Dewpoint: 18.0°C (64°F) [RH = 61%]
Pressure (altimeter): 30.12 inches Hg (1020.0 mb)
Winds: from the NE (50 degrees) at 3 MPH (3 knots; 1.5 m/s)
Visibility: 6 or more miles (10+ km)
Ceiling: at least 12,000 feet AGL
Clouds: few clouds at 3600 feet AGL
Weather: no significant weather observed at this time

METAR text: EDDM 241220Z VRB03KT 9999 FEW032 26/18 Q1020 NOSIG
Conditions at: EDDM (MUNICH-FLUGHAFEN, DE) observed 1220 UTC 24 August 2019
Temperature: 26.0°C (79°F)
Dewpoint: 18.0°C (64°F) [RH = 61%]
Pressure (altimeter): 30.12 inches Hg (1020.0 mb)
Winds: variable direction winds at 3 MPH (3 knots; 1.5 m/s)
Visibility: 6 or more miles (10+ km)
Ceiling: at least 12,000 feet AGL
Clouds: few clouds at 3200 feet AGL
Weather: no significant weather observed at this time

METAR text: EDDM 241150Z 05003KT 9999 FEW032 25/17 Q1020 NOSIG
Conditions at: EDDM (MUNICH-FLUGHAFEN, DE) observed 1150 UTC 24 August 2019
Temperature: 25.0°C (77°F)
Dewpoint: 17.0°C (63°F) [RH = 61%]
Pressure (altimeter): 30.12 inches Hg (1020.0 mb)
Winds: from the NE (50 degrees) at 3 MPH (3 knots; 1.5 m/s)
Visibility: 6 or more miles (10+ km)
Ceiling: at least 12,000 feet AGL
Clouds: few clouds at 3200 feet AGL
Weather: no significant weather observed at this time

METAR text: EDDM 241120Z VRB02KT 9999 FEW030 25/17 Q1021 NOSIG
Conditions at: EDDM (MUNICH-FLUGHAFEN, DE) observed 1120 UTC 24 August 2019
Temperature: 25.0°C (77°F)
Dewpoint: 17.0°C (63°F) [RH = 61%]
Pressure (altimeter): 30.15 inches Hg (1021.0 mb)
Winds: variable direction winds at 2 MPH (2 knots; 1.0 m/s)
Visibility: 6 or more miles (10+ km)
Ceiling: at least 12,000 feet AGL
Clouds: few clouds at 3000 feet AGL
Weather: no significant weather observed at this time

METAR text: EDDM 241050Z VRB02KT 9999 FEW028 24/17 Q1021 NOSIG
Conditions at: EDDM (MUNICH-FLUGHAFEN, DE) observed 1050 UTC 24 August 2019
Temperature: 24.0°C (75°F)
Dewpoint: 17.0°C (63°F) [RH = 65%]
Pressure (altimeter): 30.15 inches Hg (1021.0 mb)
Winds: variable direction winds at 2 MPH (2 knots; 1.0 m/s)
Visibility: 6 or more miles (10+ km)
Ceiling: at least 12,000 feet AGL
Clouds: few clouds at 2800 feet AGL
Weather: no significant weather observed at this time

METAR text: EDDM 241020Z VRB03KT 9999 FEW026 24/17 Q1021 NOSIG
Conditions at: EDDM (MUNICH-FLUGHAFEN, DE) observed 1020 UTC 24 August 2019
Temperature: 24.0°C (75°F)
Dewpoint: 17.0°C (63°F) [RH = 65%]
Pressure (altimeter): 30.15 inches Hg (1021.0 mb)
Winds: variable direction winds at 3 MPH (3 knots; 1.5 m/s)
Visibility: 6 or more miles (10+ km)
Ceiling: at least 12,000 feet AGL
Clouds: few clouds at 2600 feet AGL
Weather: no significant weather observed at this time

METAR text: EDDM 240950Z VRB04KT 9999 FEW024 23/17 Q1021 NOSIG
Conditions at: EDDM (MUNICH-FLUGHAFEN, DE) observed 0950 UTC 24 August 2019
Temperature: 23.0°C (73°F)
Dewpoint: 17.0°C (63°F) [RH = 69%]
Pressure (altimeter): 30.15 inches Hg (1021.0 mb)
Winds: variable direction winds at 5 MPH (4 knots; 2.1 m/s)
Visibility: 6 or more miles (10+ km)
Ceiling: at least 12,000 feet AGL
Clouds: few clouds at 2400 feet AGL
Weather: no significant weather observed at this time

METAR text: EDDM 240920Z 13004KT 070V160 9999 FEW022 22/17 Q1021 NOSIG
Conditions at: EDDM (MUNICH-FLUGHAFEN, DE) observed 0920 UTC 24 August 2019
Temperature: 22.0°C (72°F)
Dewpoint: 17.0°C (63°F) [RH = 73%]
Pressure (altimeter): 30.15 inches Hg (1021.0 mb)
Winds: from the SE (130 degrees) at 5 MPH (4 knots; 2.1 m/s)
Visibility: 6 or more miles (10+ km)
Ceiling: at least 12,000 feet AGL
Clouds: few clouds at 2200 feet AGL
Weather: no significant weather observed at this time

METAR text: EDDM 240850Z 12003KT 080V200 9999 FEW020 22/17 Q1021 NOSIG
Conditions at: EDDM (MUNICH-FLUGHAFEN, DE) observed 0850 UTC 24 August 2019
Temperature: 22.0°C (72°F)
Dewpoint: 17.0°C (63°F) [RH = 73%]
Pressure (altimeter): 30.15 inches Hg (1021.0 mb)
Winds: from the ESE (120 degrees) at 3 MPH (3 knots; 1.5 m/s)
Visibility: 6 or more miles (10+ km)
Ceiling: at least 12,000 feet AGL
Clouds: few clouds at 2000 feet AGL
Weather: no significant weather observed at this time

METAR text: EDDM 240820Z VRB02KT CAVOK 21/16 Q1021 NOSIG
Conditions at: EDDM (MUNICH-FLUGHAFEN, DE) observed 0820 UTC 24 August 2019
Temperature: 21.0°C (70°F)
Dewpoint: 16.0°C (61°F) [RH = 73%]
Pressure (altimeter): 30.15 inches Hg (1021.0 mb)
Winds: variable direction winds at 2 MPH (2 knots; 1.0 m/s)
Visibility: 6 or more miles (10+ km)
Ceiling: ceiling and visibility are OK
Clouds: unknown
Weather: no significant weather observed at this time

METAR text: EDDM 240750Z 11004KT 080V140 CAVOK 20/16 Q1021 NOSIG
Conditions at: EDDM (MUNICH-FLUGHAFEN, DE) observed 0750 UTC 24 August 2019
Temperature: 20.0°C (68°F)
Dewpoint: 16.0°C (61°F) [RH = 78%]
Pressure (altimeter): 30.15 inches Hg (1021.0 mb)
Winds: from the ESE (110 degrees) at 5 MPH (4 knots; 2.1 m/s)
Visibility: 6 or more miles (10+ km)
Ceiling: ceiling and visibility are OK
Clouds: unknown
Weather: no significant weather observed at this time

METAR text: EDDM 240720Z 10005KT 070V140 CAVOK 19/16 Q1021 NOSIG
Conditions at: EDDM (MUNICH-FLUGHAFEN, DE) observed 0720 UTC 24 August 2019
Temperature: 19.0°C (66°F)
Dewpoint: 16.0°C (61°F) [RH = 83%]
Pressure (altimeter): 30.15 inches Hg (1021.0 mb)
Winds: from the E (100 degrees) at 6 MPH (5 knots; 2.6 m/s)
Visibility: 6 or more miles (10+ km)
Ceiling: ceiling and visibility are OK
Clouds: unknown
Weather: no significant weather observed at this time

METAR text: EDDM 240650Z 08004KT CAVOK 18/15 Q1021 NOSIG
Conditions at: EDDM (MUNICH-FLUGHAFEN, DE) observed 0650 UTC 24 August 2019
Temperature: 18.0°C (64°F)
Dewpoint: 15.0°C (59°F) [RH = 83%]
Pressure (altimeter): 30.15 inches Hg (1021.0 mb)
Winds: from the E (80 degrees) at 5 MPH (4 knots; 2.1 m/s)
Visibility: 6 or more miles (10+ km)
Ceiling: ceiling and visibility are OK
Clouds: unknown
Weather: no significant weather observed at this time

METAR text: EDDM 240620Z VRB02KT CAVOK 17/16 Q1021 NOSIG
Conditions at: EDDM (MUNICH-FLUGHAFEN, DE) observed 0620 UTC 24 August 2019
Temperature: 17.0°C (63°F)
Dewpoint: 16.0°C (61°F) [RH = 94%]
Pressure (altimeter): 30.15 inches Hg (1021.0 mb)
Winds: variable direction winds at 2 MPH (2 knots; 1.0 m/s)
Visibility: 6 or more miles (10+ km)
Ceiling: ceiling and visibility are OK
Clouds: unknown
Weather: no significant weather observed at this time

METAR text: EDDM 240550Z 05002KT CAVOK 16/15 Q1021 NOSIG
Conditions at: EDDM (MUNICH-FLUGHAFEN, DE) observed 0550 UTC 24 August 2019
Temperature: 16.0°C (61°F)
Dewpoint: 15.0°C (59°F) [RH = 94%]
Pressure (altimeter): 30.15 inches Hg (1021.0 mb)
Winds: from the NE (50 degrees) at 2 MPH (2 knots; 1.0 m/s)
Visibility: 6 or more miles (10+ km)
Ceiling: ceiling and visibility are OK
Clouds: unknown
Weather: no significant weather observed at this time

METAR text: EDDM 240520Z VRB02KT 9999 BCFG NSC 14/14 Q1021 NOSIG
Conditions at: EDDM (MUNICH-FLUGHAFEN, DE) observed 0520 UTC 24 August 2019
Temperature: 14.0°C (57°F)
Dewpoint: 14.0°C (57°F) [RH = 100%]
Pressure (altimeter): 30.15 inches Hg (1021.0 mb)
Winds: variable direction winds at 2 MPH (2 knots; 1.0 m/s)
Visibility: 6 or more miles (10+ km)
Ceiling: at least 12,000 feet AGL
Clouds: sky clear below 12,000 feet AGL
Weather: BCFG  (patches of fog)

METAR text: EDDM 240450Z 06001KT 9999 BCFG NSC 14/13 Q1021 NOSIG
Conditions at: EDDM (MUNICH-FLUGHAFEN, DE) observed 0450 UTC 24 August 2019
Temperature: 14.0°C (57°F)
Dewpoint: 13.0°C (55°F) [RH = 94%]
Pressure (altimeter): 30.15 inches Hg (1021.0 mb)
Winds: from the ENE (60 degrees) at 1 MPH (1 knots; 0.5 m/s)
Visibility: 6 or more miles (10+ km)
Ceiling: at least 12,000 feet AGL
Clouds: sky clear below 12,000 feet AGL
Weather: BCFG  (patches of fog)

METAR text: EDDM 240420Z 11001KT CAVOK 14/13 Q1021 NOSIG
Conditions at: EDDM (MUNICH-FLUGHAFEN, DE) observed 0420 UTC 24 August 2019
Temperature: 14.0°C (57°F)
Dewpoint: 13.0°C (55°F) [RH = 94%]
Pressure (altimeter): 30.15 inches Hg (1021.0 mb)
Winds: from the ESE (110 degrees) at 1 MPH (1 knots; 0.5 m/s)
Visibility: 6 or more miles (10+ km)
Ceiling: ceiling and visibility are OK
Clouds: unknown
Weather: no significant weather observed at this time

METAR text: EDDM 240350Z 11002KT CAVOK 14/13 Q1021 NOSIG
Conditions at: EDDM (MUNICH-FLUGHAFEN, DE) observed 0350 UTC 24 August 2019
Temperature: 14.0°C (57°F)
Dewpoint: 13.0°C (55°F) [RH = 94%]
Pressure (altimeter): 30.15 inches Hg (1021.0 mb)
Winds: from the ESE (110 degrees) at 2 MPH (2 knots; 1.0 m/s)
Visibility: 6 or more miles (10+ km)
Ceiling: ceiling and visibility are OK
Clouds: unknown
Weather: no significant weather observed at this time

METAR text: EDDM 240320Z VRB02KT CAVOK 14/14 Q1021 NOSIG
Conditions at: EDDM (MUNICH-FLUGHAFEN, DE) observed 0320 UTC 24 August 2019
Temperature: 14.0°C (57°F)
Dewpoint: 14.0°C (57°F) [RH = 100%]
Pressure (altimeter): 30.15 inches Hg (1021.0 mb)
Winds: variable direction winds at 2 MPH (2 knots; 1.0 m/s)
Visibility: 6 or more miles (10+ km)
Ceiling: ceiling and visibility are OK
Clouds: unknown
Weather: no significant weather observed at this time

METAR text: EDDM 240250Z VRB01KT 9999 FEW035 15/14 Q1022 NOSIG
Conditions at: EDDM (MUNICH-FLUGHAFEN, DE) observed 0250 UTC 24 August 2019
Temperature: 15.0°C (59°F)
Dewpoint: 14.0°C (57°F) [RH = 94%]
Pressure (altimeter): 30.18 inches Hg (1022.0 mb)
Winds: variable direction winds at 1 MPH (1 knots; 0.5 m/s)
Visibility: 6 or more miles (10+ km)
Ceiling: at least 12,000 feet AGL
Clouds: few clouds at 3500 feet AGL
Weather: no significant weather observed at this time

METAR text: EDDM 240220Z VRB02KT 9999 FEW035 16/15 Q1022 NOSIG
Conditions at: EDDM (MUNICH-FLUGHAFEN, DE) observed 0220 UTC 24 August 2019
Temperature: 16.0°C (61°F)
Dewpoint: 15.0°C (59°F) [RH = 94%]
Pressure (altimeter): 30.18 inches Hg (1022.0 mb)
Winds: variable direction winds at 2 MPH (2 knots; 1.0 m/s)
Visibility: 6 or more miles (10+ km)
Ceiling: at least 12,000 feet AGL
Clouds: few clouds at 3500 feet AGL
Weather: no significant weather observed at this time

METAR text: EDDM 240150Z 04004KT 9999 FEW035 17/15 Q1022 NOSIG
Conditions at: EDDM (MUNICH-FLUGHAFEN, DE) observed 0150 UTC 24 August 2019
Temperature: 17.0°C (63°F)
Dewpoint: 15.0°C (59°F) [RH = 88%]
Pressure (altimeter): 30.18 inches Hg (1022.0 mb)
Winds: from the NE (40 degrees) at 5 MPH (4 knots; 2.1 m/s)
Visibility: 6 or more miles (10+ km)
Ceiling: at least 12,000 feet AGL
Clouds: few clouds at 3500 feet AGL
Weather: no significant weather observed at this time

METAR text: EDDM 240120Z 03005KT 350V070 9999 FEW035 17/16 Q1022 NOSIG
Conditions at: EDDM (MUNICH-FLUGHAFEN, DE) observed 0120 UTC 24 August 2019
Temperature: 17.0°C (63°F)
Dewpoint: 16.0°C (61°F) [RH = 94%]
Pressure (altimeter): 30.18 inches Hg (1022.0 mb)
Winds: from the NNE (30 degrees) at 6 MPH (5 knots; 2.6 m/s)
Visibility: 6 or more miles (10+ km)
Ceiling: at least 12,000 feet AGL
Clouds: few clouds at 3500 feet AGL
Weather: no significant weather observed at this time

METAR text: EDDM 240050Z VRB01KT 9999 BKN035 17/16 Q1022 NOSIG
Conditions at: EDDM (MUNICH-FLUGHAFEN, DE) observed 0050 UTC 24 August 2019
Temperature: 17.0°C (63°F)
Dewpoint: 16.0°C (61°F) [RH = 94%]
Pressure (altimeter): 30.18 inches Hg (1022.0 mb)
Winds: variable direction winds at 1 MPH (1 knots; 0.5 m/s)
Visibility: 6 or more miles (10+ km)
Ceiling: 3500 feet AGL
Clouds: broken clouds at 3500 feet AGL
Weather: no significant weather observed at this time

METAR text: EDDM 240020Z 01001KT 9999 OVC038 17/16 Q1022 NOSIG
Conditions at: EDDM (MUNICH-FLUGHAFEN, DE) observed 0020 UTC 24 August 2019
Temperature: 17.0°C (63°F)
Dewpoint: 16.0°C (61°F) [RH = 94%]
Pressure (altimeter): 30.18 inches Hg (1022.0 mb)
Winds: from the N (10 degrees) at 1 MPH (1 knots; 0.5 m/s)
Visibility: 6 or more miles (10+ km)
Ceiling: 3800 feet AGL
Clouds: overcast cloud deck at 3800 feet AGL
Weather: no significant weather observed at this time

METAR text: EDDM 232350Z VRB01KT 9999 BKN038 17/16 Q1022 NOSIG
Conditions at: EDDM (MUNICH-FLUGHAFEN, DE) observed 2350 UTC 23 August 2019
Temperature: 17.0°C (63°F)
Dewpoint: 16.0°C (61°F) [RH = 94%]
Pressure (altimeter): 30.18 inches Hg (1022.0 mb)
Winds: variable direction winds at 1 MPH (1 knots; 0.5 m/s)
Visibility: 6 or more miles (10+ km)
Ceiling: 3800 feet AGL
Clouds: broken clouds at 3800 feet AGL
Weather: no significant weather observed at this time

METAR text: EDDM 232320Z 08002KT 9999 SCT043 18/16 Q1022 NOSIG
Conditions at: EDDM (MUNICH-FLUGHAFEN, DE) observed 2320 UTC 23 August 2019
Temperature: 18.0°C (64°F)
Dewpoint: 16.0°C (61°F) [RH = 88%]
Pressure (altimeter): 30.18 inches Hg (1022.0 mb)
Winds: from the E (80 degrees) at 2 MPH (2 knots; 1.0 m/s)
Visibility: 6 or more miles (10+ km)
Ceiling: at least 12,000 feet AGL
Clouds: scattered clouds at 4300 feet AGL
Weather: no significant weather observed at this time

METAR text: EDDM 232250Z VRB02KT 9999 OVC044 19/16 Q1022 NOSIG
Conditions at: EDDM (MUNICH-FLUGHAFEN, DE) observed 2250 UTC 23 August 2019
Temperature: 19.0°C (66°F)
Dewpoint: 16.0°C (61°F) [RH = 83%]
Pressure (altimeter): 30.18 inches Hg (1022.0 mb)
Winds: variable direction winds at 2 MPH (2 knots; 1.0 m/s)
Visibility: 6 or more miles (10+ km)
Ceiling: 4400 feet AGL
Clouds: overcast cloud deck at 4400 feet AGL
Weather: no significant weather observed at this time

METAR text: EDDM 232220Z 08002KT 9999 BKN045 19/16 Q1023 NOSIG
Conditions at: EDDM (MUNICH-FLUGHAFEN, DE) observed 2220 UTC 23 August 2019
Temperature: 19.0°C (66°F)
Dewpoint: 16.0°C (61°F) [RH = 83%]
Pressure (altimeter): 30.21 inches Hg (1023.0 mb)
Winds: from the E (80 degrees) at 2 MPH (2 knots; 1.0 m/s)
Visibility: 6 or more miles (10+ km)
Ceiling: 4500 feet AGL
Clouds: broken clouds at 4500 feet AGL
Weather: no significant weather observed at this time

METAR text: EDDM 232150Z 02003KT 340V040 9999 FEW040 BKN045 19/17 Q1023 NOSIG
Conditions at: EDDM (MUNICH-FLUGHAFEN, DE) observed 2150 UTC 23 August 2019
Temperature: 19.0°C (66°F)
Dewpoint: 17.0°C (63°F) [RH = 88%]
Pressure (altimeter): 30.21 inches Hg (1023.0 mb)
Winds: from the NNE (20 degrees) at 3 MPH (3 knots; 1.5 m/s)
Visibility: 6 or more miles (10+ km)
Ceiling: 4500 feet AGL
Clouds: few clouds at 4000 feet AGL
broken clouds at 4500 feet AGL
Weather: no significant weather observed at this time

METAR text: EDDM 232120Z 35001KT 9999 SCT040 BKN045 18/17 Q1023 NOSIG
Conditions at: EDDM (MUNICH-FLUGHAFEN, DE) observed 2120 UTC 23 August 2019
Temperature: 18.0°C (64°F)
Dewpoint: 17.0°C (63°F) [RH = 94%]
Pressure (altimeter): 30.21 inches Hg (1023.0 mb)
Winds: from the N (350 degrees) at 1 MPH (1 knots; 0.5 m/s)
Visibility: 6 or more miles (10+ km)
Ceiling: 4500 feet AGL
Clouds: scattered clouds at 4000 feet AGL
broken clouds at 4500 feet AGL
Weather: no significant weather observed at this time

METAR text: EDDM 232050Z 32002KT 9999 SCT040 BKN045 18/16 Q1023 NOSIG
Conditions at: EDDM (MUNICH-FLUGHAFEN, DE) observed 2050 UTC 23 August 2019
Temperature: 18.0°C (64°F)
Dewpoint: 16.0°C (61°F) [RH = 88%]
Pressure (altimeter): 30.21 inches Hg (1023.0 mb)
Winds: from the NW (320 degrees) at 2 MPH (2 knots; 1.0 m/s)
Visibility: 6 or more miles (10+ km)
Ceiling: 4500 feet AGL
Clouds: scattered clouds at 4000 feet AGL
broken clouds at 4500 feet AGL
Weather: no significant weather observed at this time

METAR text: EDDM 232020Z 34001KT 9999 BKN045 18/16 Q1024 NOSIG
Conditions at: EDDM (MUNICH-FLUGHAFEN, DE) observed 2020 UTC 23 August 2019
Temperature: 18.0°C (64°F)
Dewpoint: 16.0°C (61°F) [RH = 88%]
Pressure (altimeter): 30.24 inches Hg (1024.0 mb)
Winds: from the NNW (340 degrees) at 1 MPH (1 knots; 0.5 m/s)
Visibility: 6 or more miles (10+ km)
Ceiling: 4500 feet AGL
Clouds: broken clouds at 4500 feet AGL
Weather: no significant weather observed at this time

METAR text: EDDM 231950Z 00000KT 9999 BKN045 18/16 Q1024 NOSIG
Conditions at: EDDM (MUNICH-FLUGHAFEN, DE) observed 1950 UTC 23 August 2019
Temperature: 18.0°C (64°F)
Dewpoint: 16.0°C (61°F) [RH = 88%]
Pressure (altimeter): 30.24 inches Hg (1024.0 mb)
Winds: calm
Visibility: 6 or more miles (10+ km)
Ceiling: 4500 feet AGL
Clouds: broken clouds at 4500 feet AGL
Weather: no significant weather observed at this time

METAR text: EDDM 231920Z 34002KT 9999 FEW045 18/16 Q1024 NOSIG
Conditions at: EDDM (MUNICH-FLUGHAFEN, DE) observed 1920 UTC 23 August 2019
Temperature: 18.0°C (64°F)
Dewpoint: 16.0°C (61°F) [RH = 88%]
Pressure (altimeter): 30.24 inches Hg (1024.0 mb)
Winds: from the NNW (340 degrees) at 2 MPH (2 knots; 1.0 m/s)
Visibility: 6 or more miles (10+ km)
Ceiling: at least 12,000 feet AGL
Clouds: few clouds at 4500 feet AGL
Weather: no significant weather observed at this time

METAR text: EDDM 231850Z VRB01KT 9999 FEW042 19/16 Q1024 NOSIG
Conditions at: EDDM (MUNICH-FLUGHAFEN, DE) observed 1850 UTC 23 August 2019
Temperature: 19.0°C (66°F)
Dewpoint: 16.0°C (61°F) [RH = 83%]
Pressure (altimeter): 30.24 inches Hg (1024.0 mb)
Winds: variable direction winds at 1 MPH (1 knots; 0.5 m/s)
Visibility: 6 or more miles (10+ km)
Ceiling: at least 12,000 feet AGL
Clouds: few clouds at 4200 feet AGL
Weather: no significant weather observed at this time

METAR text: EDDM 231820Z VRB02KT 9999 BKN042 20/17 Q1024 NOSIG
Conditions at: EDDM (MUNICH-FLUGHAFEN, DE) observed 1820 UTC 23 August 2019
Temperature: 20.0°C (68°F)
Dewpoint: 17.0°C (63°F) [RH = 83%]
Pressure (altimeter): 30.24 inches Hg (1024.0 mb)
Winds: variable direction winds at 2 MPH (2 knots; 1.0 m/s)
Visibility: 6 or more miles (10+ km)
Ceiling: 4200 feet AGL
Clouds: broken clouds at 4200 feet AGL
Weather: no significant weather observed at this time

METAR text: EDDM 231750Z VRB02KT 9999 BKN040 21/16 Q1024 NOSIG
Conditions at: EDDM (MUNICH-FLUGHAFEN, DE) observed 1750 UTC 23 August 2019
Temperature: 21.0°C (70°F)
Dewpoint: 16.0°C (61°F) [RH = 73%]
Pressure (altimeter): 30.24 inches Hg (1024.0 mb)
Winds: variable direction winds at 2 MPH (2 knots; 1.0 m/s)
Visibility: 6 or more miles (10+ km)
Ceiling: 4000 feet AGL
Clouds: broken clouds at 4000 feet AGL
Weather: no significant weather observed at this time

METAR text: EDDM 231720Z 11002KT 9999 BKN040 22/16 Q1024 NOSIG
Conditions at: EDDM (MUNICH-FLUGHAFEN, DE) observed 1720 UTC 23 August 2019
Temperature: 22.0°C (72°F)
Dewpoint: 16.0°C (61°F) [RH = 69%]
Pressure (altimeter): 30.24 inches Hg (1024.0 mb)
Winds: from the ESE (110 degrees) at 2 MPH (2 knots; 1.0 m/s)
Visibility: 6 or more miles (10+ km)
Ceiling: 4000 feet AGL
Clouds: broken clouds at 4000 feet AGL
Weather: no significant weather observed at this time

METAR text: EDDM 231650Z 10005KT 9999 SCT036 22/15 Q1024 NOSIG
Conditions at: EDDM (MUNICH-FLUGHAFEN, DE) observed 1650 UTC 23 August 2019
Temperature: 22.0°C (72°F)
Dewpoint: 15.0°C (59°F) [RH = 65%]
Pressure (altimeter): 30.24 inches Hg (1024.0 mb)
Winds: from the E (100 degrees) at 6 MPH (5 knots; 2.6 m/s)
Visibility: 6 or more miles (10+ km)
Ceiling: at least 12,000 feet AGL
Clouds: scattered clouds at 3600 feet AGL
Weather: no significant weather observed at this time

METAR text: EDDM 231620Z 08007KT 9999 SCT036 22/15 Q1023 NOSIG
Conditions at: EDDM (MUNICH-FLUGHAFEN, DE) observed 1620 UTC 23 August 2019
Temperature: 22.0°C (72°F)
Dewpoint: 15.0°C (59°F) [RH = 65%]
Pressure (altimeter): 30.21 inches Hg (1023.0 mb)
Winds: from the E (80 degrees) at 8 MPH (7 knots; 3.6 m/s)
Visibility: 6 or more miles (10+ km)
Ceiling: at least 12,000 feet AGL
Clouds: scattered clouds at 3600 feet AGL
Weather: no significant weather observed at this time

METAR text: EDDM 231550Z 08008KT 050V110 9999 FEW033 23/15 Q1024 NOSIG
Conditions at: EDDM (MUNICH-FLUGHAFEN, DE) observed 1550 UTC 23 August 2019
Temperature: 23.0°C (73°F)
Dewpoint: 15.0°C (59°F) [RH = 61%]
Pressure (altimeter): 30.24 inches Hg (1024.0 mb)
Winds: from the E (80 degrees) at 9 MPH (8 knots; 4.1 m/s)
Visibility: 6 or more miles (10+ km)
Ceiling: at least 12,000 feet AGL
Clouds: few clouds at 3300 feet AGL
Weather: no significant weather observed at this time

METAR text: EDDM 231520Z 08007KT 050V120 9999 FEW033 23/15 Q1024 NOSIG
Conditions at: EDDM (MUNICH-FLUGHAFEN, DE) observed 1520 UTC 23 August 2019
Temperature: 23.0°C (73°F)
Dewpoint: 15.0°C (59°F) [RH = 61%]
Pressure (altimeter): 30.24 inches Hg (1024.0 mb)
Winds: from the E (80 degrees) at 8 MPH (7 knots; 3.6 m/s)
Visibility: 6 or more miles (10+ km)
Ceiling: at least 12,000 feet AGL
Clouds: few clouds at 3300 feet AGL
Weather: no significant weather observed at this time

METAR text: EDDM 231450Z 06006KT 9999 FEW033 BKN040 22/15 Q1024 NOSIG
Conditions at: EDDM (MUNICH-FLUGHAFEN, DE) observed 1450 UTC 23 August 2019
Temperature: 22.0°C (72°F)
Dewpoint: 15.0°C (59°F) [RH = 65%]
Pressure (altimeter): 30.24 inches Hg (1024.0 mb)
Winds: from the ENE (60 degrees) at 7 MPH (6 knots; 3.1 m/s)
Visibility: 6 or more miles (10+ km)
Ceiling: 4000 feet AGL
Clouds: few clouds at 3300 feet AGL
broken clouds at 4000 feet AGL
Weather: no significant weather observed at this time

METAR text: EDDM 231420Z 09009KT 9999 FEW032 BKN040 22/15 Q1024 NOSIG
Conditions at: EDDM (MUNICH-FLUGHAFEN, DE) observed 1420 UTC 23 August 2019
Temperature: 22.0°C (72°F)
Dewpoint: 15.0°C (59°F) [RH = 65%]
Pressure (altimeter): 30.24 inches Hg (1024.0 mb)
Winds: from the E (90 degrees) at 10 MPH (9 knots; 4.6 m/s)
Visibility: 6 or more miles (10+ km)
Ceiling: 4000 feet AGL
Clouds: few clouds at 3200 feet AGL
broken clouds at 4000 feet AGL
Weather: no significant weather observed at this time

METAR text: EDDM 231350Z 08008KT 9999 FEW031 BKN040 22/15 Q1024 NOSIG
Conditions at: EDDM (MUNICH-FLUGHAFEN, DE) observed 1350 UTC 23 August 2019
Temperature: 22.0°C (72°F)
Dewpoint: 15.0°C (59°F) [RH = 65%]
Pressure (altimeter): 30.24 inches Hg (1024.0 mb)
Winds: from the E (80 degrees) at 9 MPH (8 knots; 4.1 m/s)
Visibility: 6 or more miles (10+ km)
Ceiling: 4000 feet AGL
Clouds: few clouds at 3100 feet AGL
broken clouds at 4000 feet AGL
Weather: no significant weather observed at this time

METAR text: EDDM 231320Z 09009KT 9999 FEW032 BKN040 22/15 Q1025 NOSIG
Conditions at: EDDM (MUNICH-FLUGHAFEN, DE) observed 1320 UTC 23 August 2019
Temperature: 22.0°C (72°F)
Dewpoint: 15.0°C (59°F) [RH = 65%]
Pressure (altimeter): 30.27 inches Hg (1025.0 mb)
Winds: from the E (90 degrees) at 10 MPH (9 knots; 4.6 m/s)
Visibility: 6 or more miles (10+ km)
Ceiling: 4000 feet AGL
Clouds: few clouds at 3200 feet AGL
broken clouds at 4000 feet AGL
Weather: no significant weather observed at this time

METAR text: EDDM 231250Z 07007KT 030V100 9999 FEW032 BKN040 22/14 Q1025 NOSIG
Conditions at: EDDM (MUNICH-FLUGHAFEN, DE) observed 1250 UTC 23 August 2019
Temperature: 22.0°C (72°F)
Dewpoint: 14.0°C (57°F) [RH = 60%]
Pressure (altimeter): 30.27 inches Hg (1025.0 mb)
Winds: from the ENE (70 degrees) at 8 MPH (7 knots; 3.6 m/s)
Visibility: 6 or more miles (10+ km)
Ceiling: 4000 feet AGL
Clouds: few clouds at 3200 feet AGL
broken clouds at 4000 feet AGL
Weather: no significant weather observed at this time

METAR text: EDDM 231220Z 08007KT 9999 FEW030 BKN040 22/15 Q1025 NOSIG
Conditions at: EDDM (MUNICH-FLUGHAFEN, DE) observed 1220 UTC 23 August 2019
Temperature: 22.0°C (72°F)
Dewpoint: 15.0°C (59°F) [RH = 65%]
Pressure (altimeter): 30.27 inches Hg (1025.0 mb)
Winds: from the E (80 degrees) at 8 MPH (7 knots; 3.6 m/s)
Visibility: 6 or more miles (10+ km)
Ceiling: 4000 feet AGL
Clouds: few clouds at 3000 feet AGL
broken clouds at 4000 feet AGL
Weather: no significant weather observed at this time

METAR text: EDDM 231150Z 07007KT 030V100 9999 FEW028 BKN040 21/15 Q1025 NOSIG
Conditions at: EDDM (MUNICH-FLUGHAFEN, DE) observed 1150 UTC 23 August 2019
Temperature: 21.0°C (70°F)
Dewpoint: 15.0°C (59°F) [RH = 69%]
Pressure (altimeter): 30.27 inches Hg (1025.0 mb)
Winds: from the ENE (70 degrees) at 8 MPH (7 knots; 3.6 m/s)
Visibility: 6 or more miles (10+ km)
Ceiling: 4000 feet AGL
Clouds: few clouds at 2800 feet AGL
broken clouds at 4000 feet AGL
Weather: no significant weather observed at this time

METAR text: EDDM 231120Z 07007KT 040V130 9999 FEW027 BKN038 21/15 Q1025 NOSIG
Conditions at: EDDM (MUNICH-FLUGHAFEN, DE) observed 1120 UTC 23 August 2019
Temperature: 21.0°C (70°F)
Dewpoint: 15.0°C (59°F) [RH = 69%]
Pressure (altimeter): 30.27 inches Hg (1025.0 mb)
Winds: from the ENE (70 degrees) at 8 MPH (7 knots; 3.6 m/s)
Visibility: 6 or more miles (10+ km)
Ceiling: 3800 feet AGL
Clouds: few clouds at 2700 feet AGL
broken clouds at 3800 feet AGL
Weather: no significant weather observed at this time

METAR text: EDDM 231050Z 09007KT 9999 FEW026 BKN036 21/15 Q1026 NOSIG
Conditions at: EDDM (MUNICH-FLUGHAFEN, DE) observed 1050 UTC 23 August 2019
Temperature: 21.0°C (70°F)
Dewpoint: 15.0°C (59°F) [RH = 69%]
Pressure (altimeter): 30.30 inches Hg (1026.0 mb)
Winds: from the E (90 degrees) at 8 MPH (7 knots; 3.6 m/s)
Visibility: 6 or more miles (10+ km)
Ceiling: 3600 feet AGL
Clouds: few clouds at 2600 feet AGL
broken clouds at 3600 feet AGL
Weather: no significant weather observed at this time

METAR text: EDDM 231020Z 08007KT 050V120 9999 FEW026 BKN037 21/15 Q1026 NOSIG
Conditions at: EDDM (MUNICH-FLUGHAFEN, DE) observed 1020 UTC 23 August 2019
Temperature: 21.0°C (70°F)
Dewpoint: 15.0°C (59°F) [RH = 69%]
Pressure (altimeter): 30.30 inches Hg (1026.0 mb)
Winds: from the E (80 degrees) at 8 MPH (7 knots; 3.6 m/s)
Visibility: 6 or more miles (10+ km)
Ceiling: 3700 feet AGL
Clouds: few clouds at 2600 feet AGL
broken clouds at 3700 feet AGL
Weather: no significant weather observed at this time

METAR text: EDDM 230950Z 10008KT 070V130 9999 FEW029 BKN037 21/15 Q1026 NOSIG
Conditions at: EDDM (MUNICH-FLUGHAFEN, DE) observed 0950 UTC 23 August 2019
Temperature: 21.0°C (70°F)
Dewpoint: 15.0°C (59°F) [RH = 69%]
Pressure (altimeter): 30.30 inches Hg (1026.0 mb)
Winds: from the E (100 degrees) at 9 MPH (8 knots; 4.1 m/s)
Visibility: 6 or more miles (10+ km)
Ceiling: 3700 feet AGL
Clouds: few clouds at 2900 feet AGL
broken clouds at 3700 feet AGL
Weather: no significant weather observed at this time

METAR text: EDDM 230920Z 09009KT 040V110 9999 FEW024 SCT039 21/14 Q1026 NOSIG
Conditions at: EDDM (MUNICH-FLUGHAFEN, DE) observed 0920 UTC 23 August 2019
Temperature: 21.0°C (70°F)
Dewpoint: 14.0°C (57°F) [RH = 64%]
Pressure (altimeter): 30.30 inches Hg (1026.0 mb)
Winds: from the E (90 degrees) at 10 MPH (9 knots; 4.6 m/s)
Visibility: 6 or more miles (10+ km)
Ceiling: at least 12,000 feet AGL
Clouds: few clouds at 2400 feet AGL
scattered clouds at 3900 feet AGL
Weather: no significant weather observed at this time

METAR text: EDDM 230850Z 09006KT 050V140 9999 FEW022 SCT040 20/15 Q1026 NOSIG
Conditions at: EDDM (MUNICH-FLUGHAFEN, DE) observed 0850 UTC 23 August 2019
Temperature: 20.0°C (68°F)
Dewpoint: 15.0°C (59°F) [RH = 73%]
Pressure (altimeter): 30.30 inches Hg (1026.0 mb)
Winds: from the E (90 degrees) at 7 MPH (6 knots; 3.1 m/s)
Visibility: 6 or more miles (10+ km)
Ceiling: at least 12,000 feet AGL
Clouds: few clouds at 2200 feet AGL
scattered clouds at 4000 feet AGL
Weather: no significant weather observed at this time

METAR text: EDDM 230820Z 04005KT 010V090 9999 FEW020 20/15 Q1026 NOSIG
Conditions at: EDDM (MUNICH-FLUGHAFEN, DE) observed 0820 UTC 23 August 2019
Temperature: 20.0°C (68°F)
Dewpoint: 15.0°C (59°F) [RH = 73%]
Pressure (altimeter): 30.30 inches Hg (1026.0 mb)
Winds: from the NE (40 degrees) at 6 MPH (5 knots; 2.6 m/s)
Visibility: 6 or more miles (10+ km)
Ceiling: at least 12,000 feet AGL
Clouds: few clouds at 2000 feet AGL
Weather: no significant weather observed at this time

METAR text: EDDM 230750Z 04004KT 340V100 9999 FEW042 19/15 Q1026 NOSIG
Conditions at: EDDM (MUNICH-FLUGHAFEN, DE) observed 0750 UTC 23 August 2019
Temperature: 19.0°C (66°F)
Dewpoint: 15.0°C (59°F) [RH = 78%]
Pressure (altimeter): 30.30 inches Hg (1026.0 mb)
Winds: from the NE (40 degrees) at 5 MPH (4 knots; 2.1 m/s)
Visibility: 6 or more miles (10+ km)
Ceiling: at least 12,000 feet AGL
Clouds: few clouds at 4200 feet AGL
Weather: no significant weather observed at this time

METAR text: EDDM 230720Z VRB02KT 9999 FEW042 18/15 Q1026 NOSIG
Conditions at: EDDM (MUNICH-FLUGHAFEN, DE) observed 0720 UTC 23 August 2019
Temperature: 18.0°C (64°F)
Dewpoint: 15.0°C (59°F) [RH = 83%]
Pressure (altimeter): 30.30 inches Hg (1026.0 mb)
Winds: variable direction winds at 2 MPH (2 knots; 1.0 m/s)
Visibility: 6 or more miles (10+ km)
Ceiling: at least 12,000 feet AGL
Clouds: few clouds at 4200 feet AGL
Weather: no significant weather observed at this time

METAR text: EDDM 230650Z VRB02KT 9000 FEW043 16/15 Q1026 NOSIG
Conditions at: EDDM (MUNICH-FLUGHAFEN, DE) observed 0650 UTC 23 August 2019
Temperature: 16.0°C (61°F)
Dewpoint: 15.0°C (59°F) [RH = 94%]
Pressure (altimeter): 30.30 inches Hg (1026.0 mb)
Winds: variable direction winds at 2 MPH (2 knots; 1.0 m/s)
Visibility: 6 miles ( 9 km)
Ceiling: at least 12,000 feet AGL
Clouds: few clouds at 4300 feet AGL
Weather: no significant weather observed at this time

METAR text: EDDM 230620Z VRB01KT 8000 BKN045 15/14 Q1026 NOSIG
Conditions at: EDDM (MUNICH-FLUGHAFEN, DE) observed 0620 UTC 23 August 2019
Temperature: 15.0°C (59°F)
Dewpoint: 14.0°C (57°F) [RH = 94%]
Pressure (altimeter): 30.30 inches Hg (1026.0 mb)
Winds: variable direction winds at 1 MPH (1 knots; 0.5 m/s)
Visibility: 5 miles ( 8 km)
Ceiling: 4500 feet AGL
Clouds: broken clouds at 4500 feet AGL
Weather: no significant weather observed at this time

METAR text: EDDM 230550Z VRB01KT 7000 BKN045 13/13 Q1026 NOSIG
Conditions at: EDDM (MUNICH-FLUGHAFEN, DE) observed 0550 UTC 23 August 2019
Temperature: 13.0°C (55°F)
Dewpoint: 13.0°C (55°F) [RH = 100%]
Pressure (altimeter): 30.30 inches Hg (1026.0 mb)
Winds: variable direction winds at 1 MPH (1 knots; 0.5 m/s)
Visibility: 4 miles ( 7 km)
Ceiling: 4500 feet AGL
Clouds: broken clouds at 4500 feet AGL
Weather: no significant weather observed at this time

METAR text: EDDM 230520Z 15001KT 5000 BR BKN045 13/12 Q1026 NOSIG
Conditions at: EDDM (MUNICH-FLUGHAFEN, DE) observed 0520 UTC 23 August 2019
Temperature: 13.0°C (55°F)
Dewpoint: 12.0°C (54°F) [RH = 94%]
Pressure (altimeter): 30.30 inches Hg (1026.0 mb)
Winds: from the SSE (150 degrees) at 1 MPH (1 knots; 0.5 m/s)
Visibility: 3 miles ( 5 km)
Ceiling: 4500 feet AGL
Clouds: broken clouds at 4500 feet AGL
Weather: BR  (mist)

METAR text: EDDM 230450Z 19001KT 4500 BR BKN045 12/12 Q1026 TEMPO 2500
Conditions at: EDDM (MUNICH-FLUGHAFEN, DE) observed 0450 UTC 23 August 2019
Temperature: 12.0°C (54°F)
Dewpoint: 12.0°C (54°F) [RH = 100%]
Pressure (altimeter): 30.30 inches Hg (1026.0 mb)
Winds: from the S (190 degrees) at 1 MPH (1 knots; 0.5 m/s)
Visibility: 2.80 miles (4.51 km)
Ceiling: 4500 feet AGL
Clouds: broken clouds at 4500 feet AGL
Weather: BR  (mist)

METAR text: EDDM 230420Z 14001KT 4500 2000NW BCFG BR BKN042 12/12 Q1026 TEMPO 2500
Conditions at: EDDM (MUNICH-FLUGHAFEN, DE) observed 0420 UTC 23 August 2019
Temperature: 12.0°C (54°F)
Dewpoint: 12.0°C (54°F) [RH = 100%]
Pressure (altimeter): 30.30 inches Hg (1026.0 mb)
Winds: from the SE (140 degrees) at 1 MPH (1 knots; 0.5 m/s)
Visibility: 2.80 miles (4.51 km)
Ceiling: 4200 feet AGL
Clouds: broken clouds at 4200 feet AGL
Weather: BCFG BR  (patches of fog, mist)

METAR text: EDDM 230350Z VRB01KT 4000 BR BKN042 12/12 Q1026 TEMPO 2500
Conditions at: EDDM (MUNICH-FLUGHAFEN, DE) observed 0350 UTC 23 August 2019
Temperature: 12.0°C (54°F)
Dewpoint: 12.0°C (54°F) [RH = 100%]
Pressure (altimeter): 30.30 inches Hg (1026.0 mb)
Winds: variable direction winds at 1 MPH (1 knots; 0.5 m/s)
Visibility: 2.49 miles (4.01 km)
Ceiling: 4200 feet AGL
Clouds: broken clouds at 4200 feet AGL
Weather: BR  (mist)

METAR text: EDDM 230320Z VRB01KT 4500 BR BKN042 12/12 Q1026 TEMPO 2500
Conditions at: EDDM (MUNICH-FLUGHAFEN, DE) observed 0320 UTC 23 August 2019
Temperature: 12.0°C (54°F)
Dewpoint: 12.0°C (54°F) [RH = 100%]
Pressure (altimeter): 30.30 inches Hg (1026.0 mb)
Winds: variable direction winds at 1 MPH (1 knots; 0.5 m/s)
Visibility: 2.80 miles (4.51 km)
Ceiling: 4200 feet AGL
Clouds: broken clouds at 4200 feet AGL
Weather: BR  (mist)

METAR text: EDDM 230250Z 10001KT 5000 BR BKN042 12/12 Q1026 TEMPO 3000
Conditions at: EDDM (MUNICH-FLUGHAFEN, DE) observed 0250 UTC 23 August 2019
Temperature: 12.0°C (54°F)
Dewpoint: 12.0°C (54°F) [RH = 100%]
Pressure (altimeter): 30.30 inches Hg (1026.0 mb)
Winds: from the E (100 degrees) at 1 MPH (1 knots; 0.5 m/s)
Visibility: 3 miles ( 5 km)
Ceiling: 4200 feet AGL
Clouds: broken clouds at 4200 feet AGL
Weather: BR  (mist)

METAR text: EDDM 230220Z VRB01KT 8000 BKN042 12/12 Q1026 NOSIG
Conditions at: EDDM (MUNICH-FLUGHAFEN, DE) observed 0220 UTC 23 August 2019
Temperature: 12.0°C (54°F)
Dewpoint: 12.0°C (54°F) [RH = 100%]
Pressure (altimeter): 30.30 inches Hg (1026.0 mb)
Winds: variable direction winds at 1 MPH (1 knots; 0.5 m/s)
Visibility: 5 miles ( 8 km)
Ceiling: 4200 feet AGL
Clouds: broken clouds at 4200 feet AGL
Weather: no significant weather observed at this time

METAR text: EDDM 230150Z VRB01KT 8000 BKN042 12/12 Q1026 NOSIG
Conditions at: EDDM (MUNICH-FLUGHAFEN, DE) observed 0150 UTC 23 August 2019
Temperature: 12.0°C (54°F)
Dewpoint: 12.0°C (54°F) [RH = 100%]
Pressure (altimeter): 30.30 inches Hg (1026.0 mb)
Winds: variable direction winds at 1 MPH (1 knots; 0.5 m/s)
Visibility: 5 miles ( 8 km)
Ceiling: 4200 feet AGL
Clouds: broken clouds at 4200 feet AGL
Weather: no significant weather observed at this time

Forecast for: EDDM (MUNICH-FLUGHAFEN, DE)
Text: TAF EDDM 241100Z 2412/2518 07005KT 9999 SCT045
Forecast period: 1200 to 1700 UTC 24 August 2019
Forecast type: FROM: standard forecast or significant change
Winds: from the ENE (70 degrees) at 6 MPH (5 knots; 2.6 m/s)
Visibility: 6 or more miles 10+ km)
Ceiling: at least 12,000 feet AGL
Clouds: scattered clouds at 4500 feet AGL
Weather: no significant weather forecast for this period
Text: BECMG 2417/2419 VRB03KT
Forecast period: 1700 UTC 24 August 2019 to 0100 UTC 25 August 2019
Forecast type: BECOMING: Conditions expected to become as follows by 1900 UTC 24 August 2019
Winds: variable direction winds at 3 MPH (3 knots; 1.5 m/s)
Visibility: 6 or more miles 10+ km)
Ceiling: at least 12,000 feet AGL
Clouds: scattered clouds at 4500 feet AGL
Weather: no significant weather forecast for this period
Text: BECMG 2501/2503 4000 BCFG
Forecast period: 0100 to 0500 UTC 25 August 2019
Forecast type: BECOMING: Conditions expected to become as follows by 0300 UTC 25 August 2019
Winds: variable direction winds at 3 MPH (3 knots; 1.5 m/s)
Visibility: 2.49 miles (4.01 km)
Ceiling: at least 12,000 feet AGL
Clouds: scattered clouds at 4500 feet AGL
Weather: BCFG  (patches of fog)
Text: PROB30
Forecast period: 0200 to 0600 UTC 25 August 2019
Forecast type: TEMPORARY: The following changes expected for less than half the time period
Visibility: 0.43 miles (0.69 km)
Ceiling: unknown
Clouds: missing
Weather: FG  (fog)
Text: TEMPO 2502/2506 0700 FG
Forecast period: 0500 to 1800 UTC 25 August 2019
Forecast type: BECOMING: Conditions expected to become as follows by 0700 UTC 25 August 2019
Winds: variable direction winds at 3 MPH (3 knots; 1.5 m/s)
Visibility: 6 miles (9 km)
Ceiling: at least 12,000 feet AGL
Clouds: scattered clouds at 4500 feet AGL
Weather: BCFG  (patches of fog)
Text: BECMG 2505/2507 9000
Forecast period: 1600 to 1800 UTC 25 August 2019
Forecast type: TEMPORARY: The following changes expected for less than half the time period
Winds: from the WSW (250 degrees) at 17 MPH (15 knots; 7.7 m/s)
Visibility: missing
Ceiling: at least 12,000 feet AGL
Clouds: scattered clouds at 2000 feet AGL
Weather: TSRA  (rain associated with thunderstorm(s))